sensor_id;sensor_type;location;lat;lon;timestamp;P1;durP1;ratioP1;P2;durP2;ratioP2
15151;SDS011;7676;50.900;6.234;2023-04-25T00:07:22;7.40;;;3.97;;
15151;SDS011;7676;50.900;6.234;2023-04-25T00:22:26;8.90;;;4.30;;
15151;SDS011;7676;50.900;6.234;2023-04-25T00:37:29;8.63;;;4.00;;
15151;SDS011;7676;50.900;6.234;2023-04-25T00:52:31;7.53;;;3.90;;
15151;SDS011;7676;50.900;6.234;2023-04-25T01:07:34;13.27;;;4.47;;
15151;SDS011;7676;50.900;6.234;2023-04-25T01:22:37;9.60;;;4.40;;
15151;SDS011;7676;50.900;6.234;2023-04-25T01:37:40;9.50;;;4.63;;
15151;SDS011;7676;50.900;6.234;2023-04-25T01:52:46;10.53;;;4.40;;
15151;SDS011;7676;50.900;6.234;2023-04-25T02:07:50;11.33;;;4.37;;
15151;SDS011;7676;50.900;6.234;2023-04-25T02:22:52;8.77;;;4.23;;
15151;SDS011;7676;50.900;6.234;2023-04-25T02:37:55;11.60;;;4.90;;
15151;SDS011;7676;50.900;6.234;2023-04-25T02:52:57;11.73;;;5.03;;
15151;SDS011;7676;50.900;6.234;2023-04-25T03:08:05;10.03;;;4.93;;
15151;SDS011;7676;50.900;6.234;2023-04-25T03:23:09;11.70;;;4.63;;
15151;SDS011;7676;50.900;6.234;2023-04-25T03:38:14;8.97;;;5.00;;
15151;SDS011;7676;50.900;6.234;2023-04-25T03:53:17;8.20;;;4.50;;
15151;SDS011;7676;50.900;6.234;2023-04-25T04:08:48;8.70;;;4.37;;
15151;SDS011;7676;50.900;6.234;2023-04-25T04:23:51;12.27;;;4.70;;
15151;SDS011;7676;50.900;6.234;2023-04-25T04:38:55;10.70;;;5.03;;
15151;SDS011;7676;50.900;6.234;2023-04-25T04:54:09;12.53;;;4.80;;
15151;SDS011;7676;50.900;6.234;2023-04-25T05:09:41;12.17;;;4.70;;
15151;SDS011;7676;50.900;6.234;2023-04-25T05:24:52;13.20;;;5.83;;
15151;SDS011;7676;50.900;6.234;2023-04-25T05:40:13;15.07;;;5.73;;
15151;SDS011;7676;50.900;6.234;2023-04-25T05:55:18;10.87;;;5.37;;
15151;SDS011;7676;50.900;6.234;2023-04-25T06:10:21;11.50;;;5.27;;
15151;SDS011;7676;50.900;6.234;2023-04-25T06:25:26;8.83;;;4.90;;
15151;SDS011;7676;50.900;6.234;2023-04-25T07:12:00;10.50;;;4.30;;
15151;SDS011;7676;50.900;6.234;2023-04-25T07:27:05;10.83;;;3.80;;
15151;SDS011;7676;50.900;6.234;2023-04-25T07:42:37;9.00;;;3.40;;
15151;SDS011;7676;50.900;6.234;2023-04-25T07:57:45;5.87;;;3.10;;
15151;SDS011;7676;50.900;6.234;2023-04-25T08:12:48;10.37;;;3.40;;
15151;SDS011;7676;50.900;6.234;2023-04-25T08:27:52;8.97;;;3.00;;
15151;SDS011;7676;50.900;6.234;2023-04-25T08:42:59;5.70;;;2.60;;
15151;SDS011;7676;50.900;6.234;2023-04-25T08:58:06;6.20;;;2.40;;
15151;SDS011;7676;50.900;6.234;2023-04-25T09:13:14;5.13;;;2.40;;
15151;SDS011;7676;50.900;6.234;2023-04-25T09:29:07;6.50;;;3.00;;
15151;SDS011;7676;50.900;6.234;2023-04-25T09:44:22;9.33;;;3.27;;
15151;SDS011;7676;50.900;6.234;2023-04-25T09:59:27;6.30;;;2.77;;
15151;SDS011;7676;50.900;6.234;2023-04-25T10:14:34;4.43;;;2.37;;
15151;SDS011;7676;50.900;6.234;2023-04-25T10:29:42;6.50;;;3.13;;
15151;SDS011;7676;50.900;6.234;2023-04-25T10:45:04;4.50;;;2.30;;
15151;SDS011;7676;50.900;6.234;2023-04-25T11:00:18;4.87;;;2.30;;
15151;SDS011;7676;50.900;6.234;2023-04-25T11:15:51;4.17;;;1.93;;
15151;SDS011;7676;50.900;6.234;2023-04-25T11:31:14;5.23;;;2.23;;
15151;SDS011;7676;50.900;6.234;2023-04-25T11:46:20;6.03;;;2.43;;
15151;SDS011;7676;50.900;6.234;2023-04-25T12:01:31;5.23;;;1.93;;
15151;SDS011;7676;50.900;6.234;2023-04-25T12:16:44;2.83;;;1.47;;
15151;SDS011;7676;50.900;6.234;2023-04-25T12:31:49;4.47;;;1.97;;
15151;SDS011;7676;50.900;6.234;2023-04-25T12:46:53;4.93;;;2.00;;
15151;SDS011;7676;50.900;6.234;2023-04-25T13:01:57;4.90;;;1.73;;
15151;SDS011;7676;50.900;6.234;2023-04-25T13:17:00;8.30;;;2.40;;
15151;SDS011;7676;50.900;6.234;2023-04-25T13:32:03;4.53;;;1.60;;
15151;SDS011;7676;50.900;6.234;2023-04-25T13:47:08;3.13;;;1.60;;
15151;SDS011;7676;50.900;6.234;2023-04-25T14:02:11;3.70;;;1.90;;
15151;SDS011;7676;50.900;6.234;2023-04-25T14:17:15;4.00;;;1.90;;
15151;SDS011;7676;50.900;6.234;2023-04-25T14:32:18;4.57;;;1.73;;
15151;SDS011;7676;50.900;6.234;2023-04-25T14:47:20;4.40;;;1.60;;
15151;SDS011;7676;50.900;6.234;2023-04-25T15:02:26;4.60;;;1.60;;
15151;SDS011;7676;50.900;6.234;2023-04-25T15:17:31;4.57;;;1.93;;
15151;SDS011;7676;50.900;6.234;2023-04-25T15:32:34;4.17;;;2.40;;
15151;SDS011;7676;50.900;6.234;2023-04-25T15:47:37;2.60;;;1.50;;
15151;SDS011;7676;50.900;6.234;2023-04-25T16:02:44;5.20;;;1.97;;
15151;SDS011;7676;50.900;6.234;2023-04-25T16:17:49;8.27;;;2.47;;
15151;SDS011;7676;50.900;6.234;2023-04-25T16:32:53;2.77;;;1.70;;
15151;SDS011;7676;50.900;6.234;2023-04-25T16:47:59;3.43;;;1.47;;
15151;SDS011;7676;50.900;6.234;2023-04-25T17:03:09;2.47;;;1.40;;
15151;SDS011;7676;50.900;6.234;2023-04-25T17:18:13;4.60;;;2.50;;
15151;SDS011;7676;50.900;6.234;2023-04-25T17:33:19;5.17;;;1.80;;
15151;SDS011;7676;50.900;6.234;2023-04-25T17:48:22;21.00;;;12.13;;
15151;SDS011;7676;50.900;6.234;2023-04-25T18:03:25;9.13;;;5.30;;
15151;SDS011;7676;50.900;6.234;2023-04-25T18:18:28;5.30;;;2.53;;
15151;SDS011;7676;50.900;6.234;2023-04-25T18:33:34;7.80;;;5.60;;
15151;SDS011;7676;50.900;6.234;2023-04-25T18:48:37;9.67;;;6.47;;
15151;SDS011;7676;50.900;6.234;2023-04-25T19:03:41;6.33;;;4.93;;
15151;SDS011;7676;50.900;6.234;2023-04-25T19:18:45;4.83;;;3.87;;
15151;SDS011;7676;50.900;6.234;2023-04-25T19:33:48;4.67;;;2.23;;
15151;SDS011;7676;50.900;6.234;2023-04-25T19:48:59;4.60;;;1.67;;
15151;SDS011;7676;50.900;6.234;2023-04-25T20:04:02;2.73;;;2.17;;
15151;SDS011;7676;50.900;6.234;2023-04-25T20:19:06;4.57;;;2.40;;
15151;SDS011;7676;50.900;6.234;2023-04-25T20:34:09;4.63;;;2.30;;
15151;SDS011;7676;50.900;6.234;2023-04-25T20:49:12;3.63;;;1.90;;
15151;SDS011;7676;50.900;6.234;2023-04-25T21:04:15;5.03;;;3.37;;
15151;SDS011;7676;50.900;6.234;2023-04-25T21:19:18;7.43;;;3.37;;
15151;SDS011;7676;50.900;6.234;2023-04-25T21:34:21;4.73;;;2.23;;
15151;SDS011;7676;50.900;6.234;2023-04-25T21:49:24;3.83;;;2.27;;
15151;SDS011;7676;50.900;6.234;2023-04-25T22:04:31;6.07;;;2.50;;
15151;SDS011;7676;50.900;6.234;2023-04-25T22:19:35;6.00;;;2.90;;
15151;SDS011;7676;50.900;6.234;2023-04-25T22:34:39;4.57;;;2.20;;
15151;SDS011;7676;50.900;6.234;2023-04-25T22:49:43;7.17;;;3.00;;
15151;SDS011;7676;50.900;6.234;2023-04-25T23:04:46;5.20;;;2.83;;
15151;SDS011;7676;50.900;6.234;2023-04-25T23:19:52;7.40;;;2.83;;
15151;SDS011;7676;50.900;6.234;2023-04-25T23:34:56;4.33;;;2.70;;
15151;SDS011;7676;50.900;6.234;2023-04-25T23:49:59;7.07;;;2.83;;
